To NAV CANADA Home Page Login to a new session Search on AWWS site Feedback and Comments Disclaimer Vers la page française équivalente Tips FAQ What's new on the site To the Forecasts and Observations / NOTAM section To "File a Flight Plan" website Publications and other links Update of the User's profile FIC Telephone Numbers My Weather Data Folder Route Weather Data Regional Weather Data Local Weather Data To the Forecasts and Observations / NOTAM section
Request Generated 05/28/2015 at 07:48:47 UTC . Weather information available at that time is displayed.

METAR/TAF

WINNIPEG/JAMES ARMSTRONG RICHARDSON INTL/MB    

METAR CYWG 280700Z 03004KT 15SM BKN220 11/05 A3002 RMK CI7 SLP169=
METAR CYWG 280600Z 05006KT 15SM BKN270 10/05 A3002 RMK CI5 SLP172=
METAR CYWG 280500Z 03006KT 15SM SCT270 11/04 A3004 RMK CI4 SLP177=

TAF CYWG 280538Z 2806/2906 04005KT P6SM BKN270
FM281000 09005KT P6SM BKN090 OVC140
FM281500 09008KT P6SM -RA BKN060 OVC100
FM281800 09012KT P6SM -RA SCT020 OVC040 TEMPO 2818/2824 OVC020
PROB30 2818/2824 VRB20G30KT 3SM TSRA BKN020CB
FM290000 25012G22KT P6SM FEW020 BKN030 TEMPO 2900/2906 BKN020
OVC030
RMK NXT FCST BY 281200Z=
Your time UTC time
Weather data provided by Environment Canada and NAV CANADA